^^
Station Historical Data
Daily Summary for September 12, 2017 Units:  Both    English   Metric
« Previous Day
Next Day »
Daily Weekly Monthly Yearly Custom
  High: Low: Average:
Temperature: TemperatureF °F /  -17.8 °C 55.9 °F /  13.3 °C 71.6 °F /  22 °C
Dew Point: DewpointF °F /  -17.8 °C -2.7 °F /  -19.3 °C 13.6 °F /  -10.2 °C
Humidity: Humidity% 3% 13%
Wind Speed: WindSpeedMPHmph /  0km/h - 1.7mph /  2.7km/h
Wind Gust: WindSpeedGustMPHmph /  0km/h - -
Wind- - ESE
Pressure: PressureIn in /  0 hPa 30.08 in /  1018.5 hPa -
Precipitation: 0.00 in /  0 mm    
Historical Graphs
 
 
Tabular Data for September 12, 2017
Time Temperature Dew Point Pressure Wind Wind Speed Wind Gust Humidity Rainfall Rate (Hourly) solar Conditions
TemperatureF °F /  -17.8 °C DewpointF °F /  -17.8 °C PressureInin /  0hPa Calm     Humidity% HourlyPrecipInin /  0mm SolarRadiationWatts/m^2 W/m2 Conditions
00:06 65.8 °F /  18.8 °C 19.8 °F /  -6.8 °C 30.15in /  1020.9hPa Calm   2.0mph /  3.2km/h 17% 0.00in /  0mm 0.0 W/m2
00:12 65.7 °F /  18.7 °C 19.6 °F /  -6.9 °C 30.15in /  1020.9hPa East 0.9mph /  1.4km/h 2.0mph /  3.2km/h 17% 0.00in /  0mm 0.0 W/m2
00:18 65.7 °F /  18.7 °C 19.6 °F /  -6.9 °C 30.16in /  1021.2hPa Calm   5.0mph /  8km/h 17% 0.00in /  0mm 0.0 W/m2
00:24 65.5 °F /  18.6 °C 19.6 °F /  -6.9 °C 30.16in /  1021.2hPa Calm   5.0mph /  8km/h 17% 0.00in /  0mm 0.0 W/m2
00:30 65.3 °F /  18.5 °C 19.4 °F /  -7 °C 30.16in /  1021.2hPa NE 2.0mph /  3.2km/h 3.0mph /  4.8km/h 17% 0.00in /  0mm 0.0 W/m2
00:36 65.3 °F /  18.5 °C 20.7 °F /  -6.3 °C 30.15in /  1020.9hPa East 4.0mph /  6.4km/h 4.0mph /  6.4km/h 18% 0.00in /  0mm 0.0 W/m2
00:42 65.3 °F /  18.5 °C 20.7 °F /  -6.3 °C 30.15in /  1020.9hPa NE 2.0mph /  3.2km/h 5.0mph /  8km/h 18% 0.00in /  0mm 0.0 W/m2
00:48 65.5 °F /  18.6 °C 20.8 °F /  -6.2 °C 30.15in /  1020.9hPa NE 2.0mph /  3.2km/h 5.0mph /  8km/h 18% 0.00in /  0mm 0.0 W/m2
00:54 65.3 °F /  18.5 °C 20.7 °F /  -6.3 °C 30.15in /  1020.9hPa NE 4.0mph /  6.4km/h 4.0mph /  6.4km/h 18% 0.00in /  0mm 0.0 W/m2
01:00 65.5 °F /  18.6 °C 20.8 °F /  -6.2 °C 30.15in /  1020.9hPa NE 0.9mph /  1.4km/h 5.0mph /  8km/h 18% 0.00in /  0mm 0.0 W/m2
01:07 65.3 °F /  18.5 °C 20.7 °F /  -6.3 °C 30.15in /  1020.9hPa ENE 2.0mph /  3.2km/h 5.0mph /  8km/h 18% 0.00in /  0mm 0.0 W/m2
01:13 65.3 °F /  18.5 °C 20.7 °F /  -6.3 °C 30.15in /  1020.9hPa Calm   6.0mph /  9.7km/h 18% 0.00in /  0mm 0.0 W/m2
01:19 65.1 °F /  18.4 °C 20.5 °F /  -6.4 °C 30.15in /  1020.9hPa NNE 0.9mph /  1.4km/h 4.0mph /  6.4km/h 18% 0.00in /  0mm 0.0 W/m2
01:25 64.8 °F /  18.2 °C 20.3 °F /  -6.5 °C 30.15in /  1020.9hPa ENE 2.0mph /  3.2km/h 3.0mph /  4.8km/h 18% 0.00in /  0mm 0.0 W/m2
01:31 64.6 °F /  18.1 °C 20.1 °F /  -6.6 °C 30.14in /  1020.5hPa East 0.9mph /  1.4km/h 1.0mph /  1.6km/h 18% 0.00in /  0mm 0.0 W/m2
01:37 64.2 °F /  17.9 °C 21.0 °F /  -6.1 °C 30.15in /  1020.9hPa NNE 0.9mph /  1.4km/h 2.0mph /  3.2km/h 19% 0.00in /  0mm 0.0 W/m2
01:43 64.0 °F /  17.8 °C 19.6 °F /  -6.9 °C 30.14in /  1020.5hPa NE 0.9mph /  1.4km/h 4.0mph /  6.4km/h 18% 0.00in /  0mm 0.0 W/m2
01:49 63.9 °F /  17.7 °C 20.8 °F /  -6.2 °C 30.14in /  1020.5hPa ESE 0.9mph /  1.4km/h 4.0mph /  6.4km/h 19% 0.00in /  0mm 0.0 W/m2
01:55 63.7 °F /  17.6 °C 20.7 °F /  -6.3 °C 30.14in /  1020.5hPa East 0.9mph /  1.4km/h 4.0mph /  6.4km/h 19% 0.00in /  0mm 0.0 W/m2
02:02 63.7 °F /  17.6 °C 20.7 °F /  -6.3 °C 30.14in /  1020.5hPa East 2.9mph /  4.7km/h 5.0mph /  8km/h 19% 0.00in /  0mm 0.0 W/m2
02:08 63.3 °F /  17.4 °C 20.3 °F /  -6.5 °C 30.14in /  1020.5hPa East 0.9mph /  1.4km/h 3.0mph /  4.8km/h 19% 0.00in /  0mm 0.0 W/m2
02:14 63.1 °F /  17.3 °C 20.1 °F /  -6.6 °C 30.14in /  1020.5hPa Calm   3.0mph /  4.8km/h 19% 0.00in /  0mm 0.0 W/m2
02:20 63.0 °F /  17.2 °C 20.1 °F /  -6.6 °C 30.14in /  1020.5hPa ESE 0.9mph /  1.4km/h 3.0mph /  4.8km/h 19% 0.00in /  0mm 0.0 W/m2
02:26 62.8 °F /  17.1 °C 19.9 °F /  -6.7 °C 30.14in /  1020.5hPa ESE 0.9mph /  1.4km/h 3.0mph /  4.8km/h 19% 0.00in /  0mm 0.0 W/m2
02:32 62.4 °F /  16.9 °C 19.6 °F /  -6.9 °C 30.14in /  1020.5hPa Calm   3.0mph /  4.8km/h 19% 0.00in /  0mm 0.0 W/m2
02:38 62.2 °F /  16.8 °C 19.4 °F /  -7 °C 30.14in /  1020.5hPa Calm   2.0mph /  3.2km/h 19% 0.00in /  0mm 0.0 W/m2
02:44 62.1 °F /  16.7 °C 19.2 °F /  -7.1 °C 30.14in /  1020.5hPa ESE 2.0mph /  3.2km/h 3.0mph /  4.8km/h 19% 0.00in /  0mm 0.0 W/m2
02:51 62.1 °F /  16.7 °C 19.2 °F /  -7.1 °C 30.14in /  1020.5hPa Calm   2.0mph /  3.2km/h 19% 0.00in /  0mm 0.0 W/m2
02:57 61.9 °F /  16.6 °C 19.2 °F /  -7.1 °C 30.14in /  1020.5hPa Calm   2.0mph /  3.2km/h 19% 0.00in /  0mm 0.0 W/m2
03:03 61.7 °F /  16.5 °C 19.0 °F /  -7.2 °C 30.14in /  1020.5hPa Calm   2.0mph /  3.2km/h 19% 0.00in /  0mm 0.0 W/m2
03:09 61.5 °F /  16.4 °C 18.9 °F /  -7.3 °C 30.14in /  1020.5hPa Calm   1.0mph /  1.6km/h 19% 0.00in /  0mm 0.0 W/m2
03:15 61.3 °F /  16.3 °C 18.7 °F /  -7.4 °C 30.14in /  1020.5hPa East 0.9mph /  1.4km/h 2.0mph /  3.2km/h 19% 0.00in /  0mm 0.0 W/m2
03:21 61.2 °F /  16.2 °C 19.8 °F /  -6.8 °C 30.14in /  1020.5hPa Calm     20% 0.00in /  0mm 0.0 W/m2
03:27 61.0 °F /  16.1 °C 19.6 °F /  -6.9 °C 30.15in /  1020.9hPa Calm     20% 0.00in /  0mm 0.0 W/m2
03:33 60.6 °F /  15.9 °C 19.4 °F /  -7 °C 30.14in /  1020.5hPa ENE 2.0mph /  3.2km/h 2.0mph /  3.2km/h 20% 0.00in /  0mm 0.0 W/m2
03:39 60.3 °F /  15.7 °C 19.0 °F /  -7.2 °C 30.15in /  1020.9hPa Calm   1.0mph /  1.6km/h 20% 0.00in /  0mm 0.0 W/m2
03:46 60.1 °F /  15.6 °C 19.9 °F /  -6.7 °C 30.15in /  1020.9hPa Calm     21% 0.00in /  0mm 0.0 W/m2
03:52 59.5 °F /  15.3 °C 19.6 °F /  -6.9 °C 30.15in /  1020.9hPa Calm     21% 0.00in /  0mm 0.0 W/m2
03:58 59.4 °F /  15.2 °C 19.4 °F /  -7 °C 30.15in /  1020.9hPa Calm   1.0mph /  1.6km/h 21% 0.00in /  0mm 0.0 W/m2
04:04 59.2 °F /  15.1 °C 19.2 °F /  -7.1 °C 30.15in /  1020.9hPa Calm     21% 0.00in /  0mm 0.0 W/m2
04:10 58.8 °F /  14.9 °C 19.0 °F /  -7.2 °C 30.15in /  1020.9hPa ENE 0.9mph /  1.4km/h 1.0mph /  1.6km/h 21% 0.00in /  0mm 0.0 W/m2
04:16 58.6 °F /  14.8 °C 18.9 °F /  -7.3 °C 30.15in /  1020.9hPa Calm     21% 0.00in /  0mm 0.0 W/m2
04:22 58.5 °F /  14.7 °C 19.8 °F /  -6.8 °C 30.15in /  1020.9hPa Calm   2.0mph /  3.2km/h 22% 0.00in /  0mm 0.0 W/m2
04:29 58.3 °F /  14.6 °C 19.6 °F /  -6.9 °C 30.15in /  1020.9hPa Calm   2.0mph /  3.2km/h 22% 0.00in /  0mm 0.0 W/m2
04:35 57.9 °F /  14.4 °C 18.1 °F /  -7.7 °C 30.15in /  1020.9hPa Calm   3.0mph /  4.8km/h 21% 0.00in /  0mm 0.0 W/m2
04:41 58.1 °F /  14.5 °C 18.3 °F /  -7.6 °C 30.15in /  1020.9hPa Calm   3.0mph /  4.8km/h 21% 0.00in /  0mm 0.0 W/m2
04:47 58.3 °F /  14.6 °C 18.5 °F /  -7.5 °C 30.15in /  1020.9hPa Calm   2.0mph /  3.2km/h 21% 0.00in /  0mm 0.0 W/m2
04:53 58.3 °F /  14.6 °C 18.5 °F /  -7.5 °C 30.15in /  1020.9hPa East 0.9mph /  1.4km/h 2.0mph /  3.2km/h 21% 0.00in /  0mm 0.0 W/m2
04:59 58.5 °F /  14.7 °C 18.7 °F /  -7.4 °C 30.15in /  1020.9hPa Calm   1.0mph /  1.6km/h 21% 0.00in /  0mm 0.0 W/m2
05:05 58.6 °F /  14.8 °C 17.6 °F /  -8 °C 30.15in /  1020.9hPa East 0.9mph /  1.4km/h 2.0mph /  3.2km/h 20% 0.00in /  0mm 0.0 W/m2
05:15 58.8 °F /  14.9 °C 17.8 °F /  -7.9 °C 30.16in /  1021.2hPa East 0.9mph /  1.4km/h 1.0mph /  1.6km/h 20% 0.00in /  0mm 0.0 W/m2
05:22 58.8 °F /  14.9 °C 17.8 °F /  -7.9 °C 30.16in /  1021.2hPa Calm   2.0mph /  3.2km/h 20% 0.00in /  0mm 0.0 W/m2
05:28 58.8 °F /  14.9 °C 17.8 °F /  -7.9 °C 30.16in /  1021.2hPa Calm   2.0mph /  3.2km/h 20% 0.00in /  0mm 0.0 W/m2
05:30 58.8 °F /  14.9 °C 17.8 °F /  -7.9 °C 30.16in /  1021.2hPa Calm   1.0mph /  1.6km/h 20% 0.00in /  0mm 0.0 W/m2
05:36 58.6 °F /  14.8 °C 17.6 °F /  -8 °C 30.16in /  1021.2hPa Calm   1.0mph /  1.6km/h 20% 0.00in /  0mm 0.0 W/m2
05:42 58.5 °F /  14.7 °C 17.6 °F /  -8 °C 30.16in /  1021.2hPa East 0.9mph /  1.4km/h 2.0mph /  3.2km/h 20% 0.00in /  0mm 0.0 W/m2
05:48 58.1 °F /  14.5 °C 18.3 °F /  -7.6 °C 30.16in /  1021.2hPa Calm   1.0mph /  1.6km/h 21% 0.00in /  0mm 0.0 W/m2
05:54 57.9 °F /  14.4 °C 18.1 °F /  -7.7 °C 30.16in /  1021.2hPa East 0.9mph /  1.4km/h 1.0mph /  1.6km/h 21% 0.00in /  0mm 0.0 W/m2
06:00 57.6 °F /  14.2 °C 19.0 °F /  -7.2 °C 30.16in /  1021.2hPa East 0.9mph /  1.4km/h 2.0mph /  3.2km/h 22% 0.00in /  0mm 0.0 W/m2
06:07 57.4 °F /  14.1 °C 18.9 °F /  -7.3 °C 30.17in /  1021.6hPa Calm   2.0mph /  3.2km/h 22% 0.00in /  0mm 0.0 W/m2
06:13 57.0 °F /  13.9 °C 18.5 °F /  -7.5 °C 30.17in /  1021.6hPa East 2.0mph /  3.2km/h 2.0mph /  3.2km/h 22% 0.00in /  0mm 0.0 W/m2
06:19 57.0 °F /  13.9 °C 18.5 °F /  -7.5 °C 30.17in /  1021.6hPa Calm   1.0mph /  1.6km/h 22% 0.00in /  0mm 0.0 W/m2
06:25 56.8 °F /  13.8 °C 18.3 °F /  -7.6 °C 30.17in /  1021.6hPa Calm   2.0mph /  3.2km/h 22% 0.00in /  0mm 0.0 W/m2
06:31 56.7 °F /  13.7 °C 18.3 °F /  -7.6 °C 30.17in /  1021.6hPa ENE 2.0mph /  3.2km/h 3.0mph /  4.8km/h 22% 0.00in /  0mm 0.0 W/m2
06:39 56.5 °F /  13.6 °C 18.1 °F /  -7.7 °C 30.17in /  1021.6hPa East 0.9mph /  1.4km/h 2.0mph /  3.2km/h 22% 0.00in /  0mm 0.0 W/m2
06:46 56.5 °F /  13.6 °C 19.0 °F /  -7.2 °C 30.17in /  1021.6hPa Calm   2.0mph /  3.2km/h 23% 0.00in /  0mm 0.0 W/m2
06:52 56.1 °F /  13.4 °C 18.9 °F /  -7.3 °C 30.18in /  1021.9hPa Calm     23% 0.00in /  0mm 0.0 W/m2
06:58 55.9 °F /  13.3 °C 19.6 °F /  -6.9 °C 30.18in /  1021.9hPa Calm     24% 0.00in /  0mm 7.0 W/m2
07:04 55.9 °F /  13.3 °C 19.6 °F /  -6.9 °C 30.18in /  1021.9hPa Calm   1.0mph /  1.6km/h 24% 0.00in /  0mm 11.0 W/m2
07:10 55.9 °F /  13.3 °C 18.7 °F /  -7.4 °C 30.19in /  1022.2hPa Calm   3.0mph /  4.8km/h 23% 0.00in /  0mm 16.0 W/m2
07:16 56.1 °F /  13.4 °C 18.9 °F /  -7.3 °C 30.19in /  1022.2hPa East 2.9mph /  4.7km/h 3.0mph /  4.8km/h 23% 0.00in /  0mm 19.0 W/m2
07:22 56.5 °F /  13.6 °C 19.0 °F /  -7.2 °C 30.19in /  1022.2hPa ENE 2.9mph /  4.7km/h 3.0mph /  4.8km/h 23% 0.00in /  0mm 25.0 W/m2
07:29 56.5 °F /  13.6 °C 19.0 °F /  -7.2 °C 30.19in /  1022.2hPa Calm   2.0mph /  3.2km/h 23% 0.00in /  0mm 28.0 W/m2
07:35 56.7 °F /  13.7 °C 20.3 °F /  -6.5 °C 30.19in /  1022.2hPa Calm   1.0mph /  1.6km/h 24% 0.00in /  0mm 33.0 W/m2
07:41 56.8 °F /  13.8 °C 20.5 °F /  -6.4 °C 30.19in /  1022.2hPa Calm   1.0mph /  1.6km/h 24% 0.00in /  0mm 35.0 W/m2
07:47 57.0 °F /  13.9 °C 20.5 °F /  -6.4 °C 30.20in /  1022.6hPa Calm   1.0mph /  1.6km/h 24% 0.00in /  0mm 39.0 W/m2
07:53 57.4 °F /  14.1 °C 19.9 °F /  -6.7 °C 30.19in /  1022.2hPa Calm   1.0mph /  1.6km/h 23% 0.00in /  0mm 42.0 W/m2
07:59 57.9 °F /  14.4 °C 22.3 °F /  -5.4 °C 30.20in /  1022.6hPa East 0.9mph /  1.4km/h 1.0mph /  1.6km/h 25% 0.00in /  0mm 44.0 W/m2
08:05 58.5 °F /  14.7 °C 21.7 °F /  -5.7 °C 30.20in /  1022.6hPa East 0.9mph /  1.4km/h 1.0mph /  1.6km/h 24% 0.00in /  0mm 47.0 W/m2
08:11 59.2 °F /  15.1 °C 21.4 °F /  -5.9 °C 30.20in /  1022.6hPa Calm   2.0mph /  3.2km/h 23% 0.00in /  0mm 51.0 W/m2
08:18 60.1 °F /  15.6 °C 22.1 °F /  -5.5 °C 30.21in /  1022.9hPa Calm   1.0mph /  1.6km/h 23% 0.00in /  0mm 54.0 W/m2
08:24 61.0 °F /  16.1 °C 20.8 °F /  -6.2 °C 30.20in /  1022.6hPa Calm   2.0mph /  3.2km/h 21% 0.00in /  0mm 56.0 W/m2
08:30 61.9 °F /  16.6 °C 21.6 °F /  -5.8 °C 30.21in /  1022.9hPa Calm   2.0mph /  3.2km/h 21% 0.00in /  0mm 58.0 W/m2
08:36 63.1 °F /  17.3 °C 20.1 °F /  -6.6 °C 30.21in /  1022.9hPa East 0.9mph /  1.4km/h 1.0mph /  1.6km/h 19% 0.00in /  0mm 65.0 W/m2
08:42 64.6 °F /  18.1 °C 20.1 °F /  -6.6 °C 30.21in /  1022.9hPa Calm   3.0mph /  4.8km/h 18% 0.00in /  0mm 63.0 W/m2
08:54 67.1 °F /  19.5 °C 19.4 °F /  -7 °C 30.21in /  1022.9hPa Calm   2.0mph /  3.2km/h 16% 0.00in /  0mm 65.0 W/m2
09:00 68.4 °F /  20.2 °C 20.5 °F /  -6.4 °C 30.21in /  1022.9hPa Calm   4.0mph /  6.4km/h 16% 0.00in /  0mm 69.0 W/m2
09:07 69.4 °F /  20.8 °C 21.2 °F /  -6 °C 30.21in /  1022.9hPa ENE 2.0mph /  3.2km/h 8.0mph /  12.9km/h 16% 0.00in /  0mm 69.0 W/m2
09:13 71.1 °F /  21.7 °C 22.6 °F /  -5.2 °C 30.20in /  1022.6hPa Calm   5.0mph /  8km/h 16% 0.00in /  0mm 72.0 W/m2
09:19 72.1 °F /  22.3 °C 20.3 °F /  -6.5 °C 30.21in /  1022.9hPa NNW 2.0mph /  3.2km/h 7.0mph /  11.3km/h 14% 0.00in /  0mm 72.0 W/m2
09:25 73.8 °F /  23.2 °C 19.8 °F /  -6.8 °C 30.20in /  1022.6hPa NW 2.9mph /  4.7km/h 10.0mph /  16.1km/h 13% 0.00in /  0mm 74.0 W/m2
09:31 75.0 °F /  23.9 °C 19.0 °F /  -7.2 °C 30.20in /  1022.6hPa North 6.0mph /  9.7km/h 9.0mph /  14.5km/h 12% 0.00in /  0mm 76.0 W/m2
09:37 76.3 °F /  24.6 °C 18.0 °F /  -7.8 °C 30.20in /  1022.6hPa NNW 4.9mph /  7.9km/h 17.0mph /  27.4km/h 11% 0.00in /  0mm 529.0 W/m2
09:43 77.2 °F /  25.1 °C 18.7 °F /  -7.4 °C 30.20in /  1022.6hPa North 10.1mph /  16.3km/h 10.1mph /  16.3km/h 11% 0.00in /  0mm 548.0 W/m2
09:49 78.4 °F /  25.8 °C 17.4 °F /  -8.1 °C 30.20in /  1022.6hPa North 2.9mph /  4.7km/h 8.0mph /  12.9km/h 10% 0.00in /  0mm 573.0 W/m2
09:55 79.5 °F /  26.4 °C 18.1 °F /  -7.7 °C 30.20in /  1022.6hPa NNE 2.9mph /  4.7km/h 15.0mph /  24.1km/h 10% 0.00in /  0mm 591.0 W/m2
10:01 79.9 °F /  26.6 °C 18.5 °F /  -7.5 °C 30.20in /  1022.6hPa East 4.0mph /  6.4km/h 9.0mph /  14.5km/h 10% 0.00in /  0mm 610.0 W/m2
10:08 80.4 °F /  26.9 °C 18.9 °F /  -7.3 °C 30.20in /  1022.6hPa East 6.9mph /  11.1km/h 12.0mph /  19.3km/h 10% 0.00in /  0mm 629.0 W/m2
10:14 80.6 °F /  27 °C 19.0 °F /  -7.2 °C 30.20in /  1022.6hPa NE 14.1mph /  22.7km/h 14.1mph /  22.7km/h 10% 0.00in /  0mm 643.0 W/m2
10:20 81.1 °F /  27.3 °C 19.4 °F /  -7 °C 30.20in /  1022.6hPa NNE 4.9mph /  7.9km/h 14.0mph /  22.5km/h 10% 0.00in /  0mm 661.0 W/m2
10:26 81.5 °F /  27.5 °C 19.8 °F /  -6.8 °C 30.20in /  1022.6hPa NE 6.0mph /  9.7km/h 10.0mph /  16.1km/h 10% 0.00in /  0mm 680.0 W/m2
10:32 81.7 °F /  27.6 °C 19.8 °F /  -6.8 °C 30.20in /  1022.6hPa NE 2.0mph /  3.2km/h 10.0mph /  16.1km/h 10% 0.00in /  0mm 691.0 W/m2
10:38 82.0 °F /  27.8 °C 20.1 °F /  -6.6 °C 30.20in /  1022.6hPa ENE 6.9mph /  11.1km/h 9.0mph /  14.5km/h 10% 0.00in /  0mm 708.0 W/m2
10:44 82.0 °F /  27.8 °C 20.1 °F /  -6.6 °C 30.19in /  1022.2hPa SE 0.9mph /  1.4km/h 7.0mph /  11.3km/h 10% 0.00in /  0mm 721.0 W/m2
10:50 82.6 °F /  28.1 °C 20.5 °F /  -6.4 °C 30.20in /  1022.6hPa East 10.1mph /  16.3km/h 10.1mph /  16.3km/h 10% 0.00in /  0mm 733.0 W/m2
10:57 82.8 °F /  28.2 °C 18.1 °F /  -7.7 °C 30.19in /  1022.2hPa East 8.1mph /  13km/h 8.1mph /  13km/h 9% 0.00in /  0mm 749.0 W/m2
11:03 83.3 °F /  28.5 °C 18.5 °F /  -7.5 °C 30.20in /  1022.6hPa East 6.9mph /  11.1km/h 13.0mph /  20.9km/h 9% 0.00in /  0mm 759.0 W/m2
11:09 83.7 °F /  28.7 °C 16.2 °F /  -8.8 °C 30.20in /  1022.6hPa NE 4.0mph /  6.4km/h 12.0mph /  19.3km/h 8% 0.00in /  0mm 773.0 W/m2
11:15 83.5 °F /  28.6 °C 16.0 °F /  -8.9 °C 30.19in /  1022.2hPa NNE 4.9mph /  7.9km/h 12.0mph /  19.3km/h 8% 0.00in /  0mm 784.0 W/m2
11:21 83.5 °F /  28.6 °C 18.7 °F /  -7.4 °C 30.19in /  1022.2hPa NE 4.9mph /  7.9km/h 14.0mph /  22.5km/h 9% 0.00in /  0mm 793.0 W/m2
11:27 83.8 °F /  28.8 °C 16.3 °F /  -8.7 °C 30.19in /  1022.2hPa NNE 2.9mph /  4.7km/h 10.0mph /  16.1km/h 8% 0.00in /  0mm 805.0 W/m2
11:33 84.0 °F /  28.9 °C 16.3 °F /  -8.7 °C 30.19in /  1022.2hPa NNE 10.1mph /  16.3km/h 10.1mph /  16.3km/h 8% 0.00in /  0mm 814.0 W/m2
11:39 84.0 °F /  28.9 °C 16.3 °F /  -8.7 °C 30.18in /  1021.9hPa ENE 4.9mph /  7.9km/h 8.0mph /  12.9km/h 8% 0.00in /  0mm 819.0 W/m2
11:45 84.6 °F /  29.2 °C 16.9 °F /  -8.4 °C 30.18in /  1021.9hPa ESE 4.9mph /  7.9km/h 9.0mph /  14.5km/h 8% 0.00in /  0mm 828.0 W/m2
11:52 84.9 °F /  29.4 °C 17.1 °F /  -8.3 °C 30.18in /  1021.9hPa NE 4.9mph /  7.9km/h 13.0mph /  20.9km/h 8% 0.00in /  0mm 833.0 W/m2
11:58 84.7 °F /  29.3 °C 16.9 °F /  -8.4 °C 30.18in /  1021.9hPa ENE 4.9mph /  7.9km/h 8.0mph /  12.9km/h 8% 0.00in /  0mm 840.0 W/m2
12:10 84.9 °F /  29.4 °C 17.1 °F /  -8.3 °C 30.17in /  1021.6hPa ENE 6.0mph /  9.7km/h 11.0mph /  17.7km/h 8% 0.00in /  0mm 854.0 W/m2
12:16 84.7 °F /  29.3 °C 16.9 °F /  -8.4 °C 30.17in /  1021.6hPa NE 6.0mph /  9.7km/h 14.0mph /  22.5km/h 8% 0.00in /  0mm 856.0 W/m2
12:22 84.6 °F /  29.2 °C 13.6 °F /  -10.2 °C 30.17in /  1021.6hPa NE 6.0mph /  9.7km/h 10.0mph /  16.1km/h 7% 0.00in /  0mm 865.0 W/m2
12:28 84.7 °F /  29.3 °C 13.8 °F /  -10.1 °C 30.16in /  1021.2hPa ENE 4.0mph /  6.4km/h 8.0mph /  12.9km/h 7% 0.00in /  0mm 863.0 W/m2
12:34 85.3 °F /  29.6 °C 14.2 °F /  -9.9 °C 30.16in /  1021.2hPa NE 4.0mph /  6.4km/h 13.0mph /  20.9km/h 7% 0.00in /  0mm 867.0 W/m2
12:40 85.5 °F /  29.7 °C 14.4 °F /  -9.8 °C 30.15in /  1020.9hPa NNE 10.1mph /  16.3km/h 15.0mph /  24.1km/h 7% 0.00in /  0mm 868.0 W/m2
12:47 85.3 °F /  29.6 °C 14.2 °F /  -9.9 °C 30.15in /  1020.9hPa Calm   5.0mph /  8km/h 7% 0.00in /  0mm 874.0 W/m2
12:53 85.6 °F /  29.8 °C 10.9 °F /  -11.7 °C 30.14in /  1020.5hPa NNW 4.9mph /  7.9km/h 10.0mph /  16.1km/h 6% 0.00in /  0mm 872.0 W/m2
12:59 86.2 °F /  30.1 °C 11.5 °F /  -11.4 °C 30.14in /  1020.5hPa NNW 2.0mph /  3.2km/h 5.0mph /  8km/h 6% 0.00in /  0mm 875.0 W/m2
13:05 86.5 °F /  30.3 °C 11.7 °F /  -11.3 °C 30.14in /  1020.5hPa ENE 6.9mph /  11.1km/h 12.0mph /  19.3km/h 6% 0.00in /  0mm 872.0 W/m2
13:11 86.5 °F /  30.3 °C 7.5 °F /  -13.6 °C 30.14in /  1020.5hPa ENE 4.0mph /  6.4km/h 12.0mph /  19.3km/h 5% 0.00in /  0mm 870.0 W/m2
13:17 86.5 °F /  30.3 °C 11.7 °F /  -11.3 °C 30.14in /  1020.5hPa SE 6.0mph /  9.7km/h 11.0mph /  17.7km/h 6% 0.00in /  0mm 863.0 W/m2
13:23 86.4 °F /  30.2 °C 7.5 °F /  -13.6 °C 30.14in /  1020.5hPa ESE 6.9mph /  11.1km/h 11.0mph /  17.7km/h 5% 0.00in /  0mm 860.0 W/m2
13:30 86.4 °F /  30.2 °C 7.5 °F /  -13.6 °C 30.13in /  1020.2hPa East 8.1mph /  13km/h 8.1mph /  13km/h 5% 0.00in /  0mm 856.0 W/m2
13:36 86.2 °F /  30.1 °C 7.3 °F /  -13.7 °C 30.13in /  1020.2hPa NNE 4.9mph /  7.9km/h 9.0mph /  14.5km/h 5% 0.00in /  0mm 854.0 W/m2
13:42 86.5 °F /  30.3 °C 7.5 °F /  -13.6 °C 30.13in /  1020.2hPa SSE 2.0mph /  3.2km/h 3.0mph /  4.8km/h 5% 0.00in /  0mm 844.0 W/m2
13:48 86.7 °F /  30.4 °C 7.7 °F /  -13.5 °C 30.13in /  1020.2hPa NE 4.0mph /  6.4km/h 6.0mph /  9.7km/h 5% 0.00in /  0mm 837.0 W/m2
13:54 86.9 °F /  30.5 °C 7.9 °F /  -13.4 °C 30.12in /  1019.9hPa NE 4.9mph /  7.9km/h 5.0mph /  8km/h 5% 0.00in /  0mm 826.0 W/m2
14:00 86.9 °F /  30.5 °C 7.9 °F /  -13.4 °C 30.12in /  1019.9hPa NW 2.9mph /  4.7km/h 9.0mph /  14.5km/h 5% 0.00in /  0mm 819.0 W/m2
14:06 87.1 °F /  30.6 °C 8.1 °F /  -13.3 °C 30.12in /  1019.9hPa North 2.0mph /  3.2km/h 4.0mph /  6.4km/h 5% 0.00in /  0mm 812.0 W/m2
14:12 87.6 °F /  30.9 °C 8.4 °F /  -13.1 °C 30.12in /  1019.9hPa NE 4.9mph /  7.9km/h 7.0mph /  11.3km/h 5% 0.00in /  0mm 803.0 W/m2
14:18 87.4 °F /  30.8 °C 8.2 °F /  -13.2 °C 30.11in /  1019.5hPa Calm   7.0mph /  11.3km/h 5% 0.00in /  0mm 795.0 W/m2
14:24 87.6 °F /  30.9 °C 8.4 °F /  -13.1 °C 30.11in /  1019.5hPa East 2.9mph /  4.7km/h 7.0mph /  11.3km/h 5% 0.00in /  0mm 780.0 W/m2
14:30 88.0 °F /  31.1 °C 8.6 °F /  -13 °C 30.11in /  1019.5hPa Calm   7.0mph /  11.3km/h 5% 0.00in /  0mm 766.0 W/m2
14:36 88.0 °F /  31.1 °C 3.7 °F /  -15.7 °C 30.10in /  1019.2hPa ESE 6.0mph /  9.7km/h 10.0mph /  16.1km/h 4% 0.00in /  0mm 752.0 W/m2
14:42 88.0 °F /  31.1 °C 3.7 °F /  -15.7 °C 30.10in /  1019.2hPa SSE 6.0mph /  9.7km/h 10.0mph /  16.1km/h 4% 0.00in /  0mm 744.0 W/m2
14:48 87.6 °F /  30.9 °C 3.6 °F /  -15.8 °C 30.10in /  1019.2hPa West 2.0mph /  3.2km/h 2.0mph /  3.2km/h 4% 0.00in /  0mm 731.0 W/m2
14:54 87.6 °F /  30.9 °C 3.6 °F /  -15.8 °C 30.10in /  1019.2hPa East 4.0mph /  6.4km/h 8.0mph /  12.9km/h 4% 0.00in /  0mm 715.0 W/m2
15:00 87.6 °F /  30.9 °C 3.6 °F /  -15.8 °C 30.10in /  1019.2hPa North 4.0mph /  6.4km/h 9.0mph /  14.5km/h 4% 0.00in /  0mm 705.0 W/m2
15:06 88.0 °F /  31.1 °C 3.7 °F /  -15.7 °C 30.10in /  1019.2hPa West 2.9mph /  4.7km/h 3.0mph /  4.8km/h 4% 0.00in /  0mm 687.0 W/m2
15:12 87.6 °F /  30.9 °C 3.6 °F /  -15.8 °C 30.09in /  1018.8hPa WNW 2.0mph /  3.2km/h 6.0mph /  9.7km/h 4% 0.00in /  0mm 673.0 W/m2
15:18 87.6 °F /  30.9 °C 3.6 °F /  -15.8 °C 30.09in /  1018.8hPa NNW 4.0mph /  6.4km/h 4.0mph /  6.4km/h 4% 0.00in /  0mm 657.0 W/m2
15:24 88.2 °F /  31.2 °C 3.9 °F /  -15.6 °C 30.09in /  1018.8hPa North 4.0mph /  6.4km/h 10.0mph /  16.1km/h 4% 0.00in /  0mm 636.0 W/m2
15:30 88.5 °F /  31.4 °C -2.0 °F /  -18.9 °C 30.09in /  1018.8hPa Calm   3.0mph /  4.8km/h 3% 0.00in /  0mm 624.0 W/m2
15:36 89.1 °F /  31.7 °C -1.7 °F /  -18.7 °C 30.09in /  1018.8hPa NNE 4.0mph /  6.4km/h 5.0mph /  8km/h 3% 0.00in /  0mm 603.0 W/m2
15:42 89.2 °F /  31.8 °C -1.7 °F /  -18.7 °C 30.09in /  1018.8hPa North 4.0mph /  6.4km/h 5.0mph /  8km/h 3% 0.00in /  0mm 585.0 W/m2
15:48 89.1 °F /  31.7 °C -1.7 °F /  -18.7 °C 30.09in /  1018.8hPa ENE 4.0mph /  6.4km/h 4.0mph /  6.4km/h 3% 0.00in /  0mm 566.0 W/m2
15:54 88.9 °F /  31.6 °C -1.8 °F /  -18.8 °C 30.09in /  1018.8hPa NE 4.9mph /  7.9km/h 5.0mph /  8km/h 3% 0.00in /  0mm 545.0 W/m2
16:00 88.3 °F /  31.3 °C -2.2 °F /  -19 °C 30.09in /  1018.8hPa Calm   7.0mph /  11.3km/h 3% 0.00in /  0mm 527.0 W/m2
16:06 88.2 °F /  31.2 °C -2.4 °F /  -19.1 °C 30.09in /  1018.8hPa Calm   10.0mph /  16.1km/h 3% 0.00in /  0mm 506.0 W/m2
16:12 88.2 °F /  31.2 °C -2.4 °F /  -19.1 °C 30.09in /  1018.8hPa SW 4.0mph /  6.4km/h 5.0mph /  8km/h 3% 0.00in /  0mm 487.0 W/m2
16:18 87.4 °F /  30.8 °C -2.7 °F /  -19.3 °C 30.09in /  1018.8hPa Calm   4.0mph /  6.4km/h 3% 0.00in /  0mm 468.0 W/m2
16:24 87.8 °F /  31 °C 3.6 °F /  -15.8 °C 30.09in /  1018.8hPa SSE 2.9mph /  4.7km/h 4.0mph /  6.4km/h 4% 0.00in /  0mm 443.0 W/m2
16:30 88.0 °F /  31.1 °C -2.4 °F /  -19.1 °C 30.09in /  1018.8hPa SSW 0.9mph /  1.4km/h 4.0mph /  6.4km/h 3% 0.00in /  0mm 424.0 W/m2
16:36 88.0 °F /  31.1 °C -2.4 °F /  -19.1 °C 30.09in /  1018.8hPa Calm   1.0mph /  1.6km/h 3% 0.00in /  0mm 401.0 W/m2
16:42 88.0 °F /  31.1 °C -2.4 °F /  -19.1 °C 30.08in /  1018.5hPa East 0.9mph /  1.4km/h 3.0mph /  4.8km/h 3% 0.00in /  0mm 378.0 W/m2
16:48 88.2 °F /  31.2 °C 3.9 °F /  -15.6 °C 30.08in /  1018.5hPa Calm   2.0mph /  3.2km/h 4% 0.00in /  0mm 355.0 W/m2
16:54 88.3 °F /  31.3 °C -2.2 °F /  -19 °C 30.09in /  1018.8hPa Calm     3% 0.00in /  0mm 330.0 W/m2
17:00 88.3 °F /  31.3 °C 3.9 °F /  -15.6 °C 30.09in /  1018.8hPa Calm   2.0mph /  3.2km/h 4% 0.00in /  0mm 308.0 W/m2
17:06 88.2 °F /  31.2 °C -2.4 °F /  -19.1 °C 30.09in /  1018.8hPa WNW 2.0mph /  3.2km/h 2.0mph /  3.2km/h 3% 0.00in /  0mm 287.0 W/m2
17:12 87.8 °F /  31 °C 3.6 °F /  -15.8 °C 30.09in /  1018.8hPa ENE 2.0mph /  3.2km/h 4.0mph /  6.4km/h 4% 0.00in /  0mm 264.0 W/m2
17:18 88.0 °F /  31.1 °C 3.7 °F /  -15.7 °C 30.09in /  1018.8hPa Calm   5.0mph /  8km/h 4% 0.00in /  0mm 241.0 W/m2
17:24 88.2 °F /  31.2 °C 3.9 °F /  -15.6 °C 30.09in /  1018.8hPa SE 4.0mph /  6.4km/h 6.0mph /  9.7km/h 4% 0.00in /  0mm 218.0 W/m2
17:30 87.6 °F /  30.9 °C -2.7 °F /  -19.3 °C 30.09in /  1018.8hPa SSW 2.0mph /  3.2km/h 7.0mph /  11.3km/h 3% 0.00in /  0mm 197.0 W/m2
17:36 86.2 °F /  30.1 °C 2.5 °F /  -16.4 °C 30.09in /  1018.8hPa Calm   2.0mph /  3.2km/h 4% 0.00in /  0mm 178.0 W/m2
17:42 86.0 °F /  30 °C 2.3 °F /  -16.5 °C 30.09in /  1018.8hPa Calm     4% 0.00in /  0mm 156.0 W/m2
18:00 86.5 °F /  30.3 °C 2.7 °F /  -16.3 °C 30.10in /  1019.2hPa Calm     4% 0.00in /  0mm 91.0 W/m2
18:06 86.5 °F /  30.3 °C 2.7 °F /  -16.3 °C 30.10in /  1019.2hPa Calm     4% 0.00in /  0mm 42.0 W/m2
18:12 86.2 °F /  30.1 °C 2.5 °F /  -16.4 °C 30.10in /  1019.2hPa SE 0.9mph /  1.4km/h 3.0mph /  4.8km/h 4% 0.00in /  0mm 28.0 W/m2
18:18 85.5 °F /  29.7 °C 1.9 °F /  -16.7 °C 30.10in /  1019.2hPa South 2.0mph /  3.2km/h 2.0mph /  3.2km/h 4% 0.00in /  0mm 23.0 W/m2
18:24 84.6 °F /  29.2 °C 1.4 °F /  -17 °C 30.10in /  1019.2hPa Calm   1.0mph /  1.6km/h 4% 0.00in /  0mm 18.0 W/m2
18:30 83.7 °F /  28.7 °C 5.5 °F /  -14.7 °C 30.11in /  1019.5hPa Calm     5% 0.00in /  0mm 12.0 W/m2
18:36 82.9 °F /  28.3 °C 5.0 °F /  -15 °C 30.11in /  1019.5hPa Calm     5% 0.00in /  0mm 9.0 W/m2
18:42 82.2 °F /  27.9 °C 8.6 °F /  -13 °C 30.11in /  1019.5hPa Calm     6% 0.00in /  0mm 5.0 W/m2
18:48 81.7 °F /  27.6 °C 8.2 °F /  -13.2 °C 30.11in /  1019.5hPa Calm     6% 0.00in /  0mm 0.0 W/m2
18:54 80.8 °F /  27.1 °C 10.9 °F /  -11.7 °C 30.11in /  1019.5hPa Calm     7% 0.00in /  0mm 0.0 W/m2
19:00 79.9 °F /  26.6 °C 10.2 °F /  -12.1 °C 30.12in /  1019.9hPa Calm     7% 0.00in /  0mm 0.0 W/m2
19:06 78.6 °F /  25.9 °C 9.3 °F /  -12.6 °C 30.12in /  1019.9hPa Calm     7% 0.00in /  0mm 0.0 W/m2
19:12 77.7 °F /  25.4 °C 8.8 °F /  -12.9 °C 30.12in /  1019.9hPa Calm     7% 0.00in /  0mm 0.0 W/m2
19:18 76.8 °F /  24.9 °C 8.1 °F /  -13.3 °C 30.12in /  1019.9hPa Calm     7% 0.00in /  0mm 0.0 W/m2
19:25 75.9 °F /  24.4 °C 10.4 °F /  -12 °C 30.12in /  1019.9hPa Calm     8% 0.00in /  0mm 0.0 W/m2
19:34 74.8 °F /  23.8 °C 12.2 °F /  -11 °C 30.13in /  1020.2hPa Calm     9% 0.00in /  0mm 0.0 W/m2
19:40 73.9 °F /  23.3 °C 11.5 °F /  -11.4 °C 30.13in /  1020.2hPa Calm   1.0mph /  1.6km/h 9% 0.00in /  0mm 0.0 W/m2
19:46 73.0 °F /  22.8 °C 10.9 °F /  -11.7 °C 30.13in /  1020.2hPa Calm     9% 0.00in /  0mm 0.0 W/m2
19:52 72.1 °F /  22.3 °C 10.2 °F /  -12.1 °C 30.14in /  1020.5hPa Calm     9% 0.00in /  0mm 0.0 W/m2
19:58 71.4 °F /  21.9 °C 9.7 °F /  -12.4 °C 30.14in /  1020.5hPa Calm     9% 0.00in /  0mm 0.0 W/m2
20:04 70.7 °F /  21.5 °C 9.1 °F /  -12.7 °C 30.14in /  1020.5hPa Calm     9% 0.00in /  0mm 0.0 W/m2
20:10 70.0 °F /  21.1 °C 13.1 °F /  -10.5 °C 30.14in /  1020.5hPa Calm   1.0mph /  1.6km/h 11% 0.00in /  0mm 0.0 W/m2
20:16 69.3 °F /  20.7 °C 12.6 °F /  -10.8 °C 30.14in /  1020.5hPa Calm   1.0mph /  1.6km/h 11% 0.00in /  0mm 0.0 W/m2
20:22 68.9 °F /  20.5 °C 12.2 °F /  -11 °C 30.15in /  1020.9hPa Calm     11% 0.00in /  0mm 0.0 W/m2
20:28 68.5 °F /  20.3 °C 11.8 °F /  -11.2 °C 30.15in /  1020.9hPa Calm     11% 0.00in /  0mm 0.0 W/m2
20:34 68.2 °F /  20.1 °C 11.7 °F /  -11.3 °C 30.15in /  1020.9hPa Calm     11% 0.00in /  0mm 0.0 W/m2
20:40 67.6 °F /  19.8 °C 11.3 °F /  -11.5 °C 30.16in /  1021.2hPa Calm     11% 0.00in /  0mm 0.0 W/m2
20:46 67.3 °F /  19.6 °C 12.9 °F /  -10.6 °C 30.16in /  1021.2hPa Calm   1.0mph /  1.6km/h 12% 0.00in /  0mm 0.0 W/m2
20:52 66.9 °F /  19.4 °C 10.8 °F /  -11.8 °C 30.16in /  1021.2hPa Calm     11% 0.00in /  0mm 0.0 W/m2
20:58 66.6 °F /  19.2 °C 10.4 °F /  -12 °C 30.16in /  1021.2hPa Calm     11% 0.00in /  0mm 0.0 W/m2
21:04 66.2 °F /  19 °C 10.0 °F /  -12.2 °C 30.17in /  1021.6hPa Calm     11% 0.00in /  0mm 0.0 W/m2
21:10 65.8 °F /  18.8 °C 11.8 °F /  -11.2 °C 30.17in /  1021.6hPa Calm     12% 0.00in /  0mm 0.0 W/m2
21:16 65.5 °F /  18.6 °C 11.5 °F /  -11.4 °C 30.17in /  1021.6hPa Calm     12% 0.00in /  0mm 0.0 W/m2
21:22 65.1 °F /  18.4 °C 13.1 °F /  -10.5 °C 30.17in /  1021.6hPa Calm     13% 0.00in /  0mm 0.0 W/m2
21:28 65.1 °F /  18.4 °C 13.1 °F /  -10.5 °C 30.17in /  1021.6hPa Calm     13% 0.00in /  0mm 0.0 W/m2
21:34 64.9 °F /  18.3 °C 12.9 °F /  -10.6 °C 30.18in /  1021.9hPa South 0.9mph /  1.4km/h 2.0mph /  3.2km/h 13% 0.00in /  0mm 0.0 W/m2
21:40 64.6 °F /  18.1 °C 12.6 °F /  -10.8 °C 30.19in /  1022.2hPa Calm     13% 0.00in /  0mm 0.0 W/m2
21:46 64.2 °F /  17.9 °C 12.4 °F /  -10.9 °C 30.18in /  1021.9hPa Calm     13% 0.00in /  0mm 0.0 W/m2
21:52 64.2 °F /  17.9 °C 12.4 °F /  -10.9 °C 30.18in /  1021.9hPa Calm   1.0mph /  1.6km/h 13% 0.00in /  0mm 0.0 W/m2
21:58 64.0 °F /  17.8 °C 12.2 °F /  -11 °C 30.18in /  1021.9hPa Calm     13% 0.00in /  0mm 0.0 W/m2
22:04 63.9 °F /  17.7 °C 13.6 °F /  -10.2 °C 30.18in /  1021.9hPa Calm   2.0mph /  3.2km/h 14% 0.00in /  0mm 0.0 W/m2
22:10 63.7 °F /  17.6 °C 13.6 °F /  -10.2 °C 30.19in /  1022.2hPa Calm   1.0mph /  1.6km/h 14% 0.00in /  0mm 0.0 W/m2
22:16 63.3 °F /  17.4 °C 13.3 °F /  -10.4 °C 30.18in /  1021.9hPa Calm     14% 0.00in /  0mm 0.0 W/m2
22:23 63.1 °F /  17.3 °C 13.1 °F /  -10.5 °C 30.18in /  1021.9hPa Calm     14% 0.00in /  0mm 0.0 W/m2
22:29 63.0 °F /  17.2 °C 14.5 °F /  -9.7 °C 30.18in /  1021.9hPa Calm     15% 0.00in /  0mm 0.0 W/m2
22:35 62.8 °F /  17.1 °C 14.4 °F /  -9.8 °C 30.18in /  1021.9hPa Calm     15% 0.00in /  0mm 0.0 W/m2
22:41 62.4 °F /  16.9 °C 14.2 °F /  -9.9 °C 30.18in /  1021.9hPa Calm     15% 0.00in /  0mm 0.0 W/m2
22:47 62.2 °F /  16.8 °C 14.0 °F /  -10 °C 30.18in /  1021.9hPa Calm     15% 0.00in /  0mm 0.0 W/m2
22:53 62.1 °F /  16.7 °C 15.3 °F /  -9.3 °C 30.18in /  1021.9hPa Calm   1.0mph /  1.6km/h 16% 0.00in /  0mm 0.0 W/m2
22:59 61.9 °F /  16.6 °C 13.6 °F /  -10.2 °C 30.18in /  1021.9hPa Calm   3.0mph /  4.8km/h 15% 0.00in /  0mm 0.0 W/m2
23:05 62.1 °F /  16.7 °C 12.2 °F /  -11 °C 30.18in /  1021.9hPa Calm   1.0mph /  1.6km/h 14% 0.00in /  0mm 0.0 W/m2
23:13 62.1 °F /  16.7 °C 12.2 °F /  -11 °C 30.18in /  1021.9hPa Calm   2.0mph /  3.2km/h 14% 0.00in /  0mm 0.0 W/m2
23:19 62.1 °F /  16.7 °C 12.2 °F /  -11 °C 30.19in /  1022.2hPa Calm     14% 0.00in /  0mm 0.0 W/m2
23:25 62.2 °F /  16.8 °C 12.4 °F /  -10.9 °C 30.18in /  1021.9hPa Calm   3.0mph /  4.8km/h 14% 0.00in /  0mm 0.0 W/m2
23:31 62.1 °F /  16.7 °C 12.2 °F /  -11 °C 30.18in /  1021.9hPa Calm     14% 0.00in /  0mm 0.0 W/m2
23:37 62.1 °F /  16.7 °C 12.2 °F /  -11 °C 30.18in /  1021.9hPa Calm     14% 0.00in /  0mm 0.0 W/m2
23:44 61.9 °F /  16.6 °C 13.6 °F /  -10.2 °C 30.18in /  1021.9hPa Calm     15% 0.00in /  0mm 0.0 W/m2
23:50 61.9 °F /  16.6 °C 13.6 °F /  -10.2 °C 30.18in /  1021.9hPa Calm     15% 0.00in /  0mm 0.0 W/m2
23:56 61.9 °F /  16.6 °C 13.6 °F /  -10.2 °C 30.18in /  1021.9hPa Calm   3.0mph /  4.8km/h 15% 0.00in /  0mm 0.0 W/m2
Olympia, Windhoek, Namibia
Compliments of Weather Underground - 3 mb